Terminal Aerodrome Forecast
Issued by NWS

Home | Current Version | Previous Version | Text Only | Print | Product List | Glossary Off
Versions: 1 2 3 4 5 6 7 8 9 10 11 12 13 14 15 16 17 18 19 20 21 22 23 24 25 26 27 28 29 30 31 32

683
FTUS43 KABR 201117 AAA
TAFMBG
TAF AMD
KMBG 201117Z 2011/2106 09012KT P6SM SKC
     FM201300 09012KT 3SM BR OVC003
     FM201600 13009KT P6SM FEW250
     FM202300 16008KT P6SM FEW250
     FM210200 13007KT P6SM FEW250
     FM210400 10006KT P6SM FEW250=

USA.gov is the U.S. government's official web portal to all federal, state and local government web resources and services.